Time;durP1;ratioP1;P1;durP2;ratioP2;P2;SDS_P1;SDS_P2;PMS_P1;PMS_P2;Temp;Humidity;BMP_temperature;BMP_pressure;BME280_temperature;BME280_humidity;BME280_pressure;Samples;Min_cycle;Max_cycle;Signal;HPM_P1;HPM_P2
2021/10/21 00:00:47;;;;;;;5.03;3.60;;;23.50;40.30;;;;;;4781995;29;20147;-57
2021/10/21 00:03:14;;;;;;;4.25;3.38;;;23.50;40.30;;;;;;4783444;29;20806;-57
2021/10/21 00:05:41;;;;;;;4.72;3.10;;;23.40;40.20;;;;;;4784017;29;20134;-55
2021/10/21 00:08:09;;;;;;;4.30;3.15;;;23.50;40.30;;;;;;4760321;30;20060;-58
2021/10/21 00:10:36;;;;;;;4.10;3.30;;;23.40;40.20;;;;;;4777853;30;20098;-57
2021/10/21 00:13:04;;;;;;;6.13;3.30;;;23.40;40.30;;;;;;4765269;30;20139;-57
2021/10/21 00:15:31;;;;;;;4.75;3.63;;;23.50;40.30;;;;;;4766049;30;20066;-57
2021/10/21 00:17:58;;;;;;;3.35;3.05;;;23.40;40.30;;;;;;4767098;30;20086;-57
2021/10/21 00:20:26;;;;;;;4.68;3.38;;;23.40;40.30;;;;;;4779640;29;20047;-57
2021/10/21 00:22:56;;;;;;;4.35;3.50;;;23.40;40.30;;;;;;4782658;29;20086;-57
2021/10/21 00:25:23;;;;;;;3.78;3.40;;;23.40;40.30;;;;;;4783559;29;20055;-57
2021/10/21 00:27:50;;;;;;;4.18;3.05;;;23.40;40.30;;;;;;4779729;29;20763;-57
2021/10/21 00:30:17;;;;;;;3.90;3.15;;;23.40;40.30;;;;;;4780199;29;20138;-57
2021/10/21 00:32:45;;;;;;;4.38;3.03;;;23.40;40.40;;;;;;4782152;29;20058;-57
2021/10/21 00:35:12;;;;;;;4.55;3.20;;;23.40;40.30;;;;;;4783580;29;20597;-57
2021/10/21 00:37:39;;;;;;;4.10;3.45;;;23.40;40.30;;;;;;4780443;29;20063;-57
2021/10/21 00:40:07;;;;;;;4.32;3.15;;;23.40;40.30;;;;;;4778986;29;20138;-57
2021/10/21 00:42:35;;;;;;;5.10;3.28;;;23.40;40.30;;;;;;4783468;29;20085;-58
2021/10/21 00:45:03;;;;;;;5.47;3.45;;;23.40;40.30;;;;;;4783562;29;20057;-57
2021/10/21 00:47:32;;;;;;;4.28;3.15;;;23.40;40.30;;;;;;4781107;29;20193;-57
2021/10/21 00:49:59;;;;;;;4.13;3.28;;;23.40;40.30;;;;;;4777801;30;20048;-57
2021/10/21 00:52:26;;;;;;;3.55;3.10;;;23.40;40.30;;;;;;4783254;29;20528;-57
2021/10/21 00:54:54;;;;;;;4.03;3.17;;;23.40;40.90;;;;;;4782554;29;20276;-57
2021/10/21 00:57:21;;;;;;;5.97;3.20;;;23.40;40.40;;;;;;4782473;29;20683;-57
2021/10/21 00:59:49;;;;;;;4.93;3.30;;;23.40;40.30;;;;;;4776284;29;20055;-57
2021/10/21 01:02:16;;;;;;;3.50;3.20;;;23.40;40.30;;;;;;4766855;30;20079;-57
2021/10/21 01:04:44;;;;;;;3.40;2.80;;;23.40;40.30;;;;;;4783011;29;20196;-57
2021/10/21 01:07:11;;;;;;;3.05;2.63;;;23.40;40.30;;;;;;4782714;29;20473;-57
2021/10/21 01:09:42;;;;;;;3.22;2.92;;;23.40;40.30;;;;;;4776264;29;20094;-57
2021/10/21 01:12:11;;;;;;;3.63;3.20;;;23.40;40.40;;;;;;4783178;29;20061;-57
2021/10/21 01:14:39;;;;;;;2.95;2.60;;;23.40;40.30;;;;;;4782785;29;20465;-57
2021/10/21 01:17:06;;;;;;;3.90;2.88;;;23.40;40.30;;;;;;4781751;29;20399;-57
2021/10/21 01:19:33;;;;;;;3.28;2.97;;;23.30;40.30;;;;;;4775404;29;20055;-57
2021/10/21 01:22:02;;;;;;;3.85;3.40;;;23.40;40.40;;;;;;4782741;29;20062;-57
2021/10/21 01:24:29;;;;;;;3.95;2.75;;;23.40;40.40;;;;;;4781851;29;20120;-56
2021/10/21 01:26:56;;;;;;;3.10;2.80;;;23.40;40.40;;;;;;4782281;29;20569;-57
2021/10/21 01:29:25;;;;;;;3.63;2.90;;;23.40;40.40;;;;;;4775256;29;20146;-57
2021/10/21 01:31:55;;;;;;;4.40;3.28;;;23.40;40.40;;;;;;4782605;29;20094;-57
2021/10/21 01:34:22;;;;;;;3.23;2.93;;;23.40;40.40;;;;;;4782484;29;20537;-57
2021/10/21 01:36:53;;;;;;;3.47;3.17;;;23.40;40.90;;;;;;4782796;29;20330;-57
2021/10/21 01:39:25;;;;;;;3.90;3.00;;;23.40;40.40;;;;;;4775701;29;20154;-56
2021/10/21 01:41:54;;;;;;;4.97;3.22;;;23.40;40.40;;;;;;4781338;29;20044;-57
2021/10/21 01:44:21;;;;;;;3.47;2.97;;;23.30;40.40;;;;;;4782387;29;20051;-57
2021/10/21 01:46:48;;;;;;;3.05;2.67;;;23.30;40.40;;;;;;4781219;29;20134;-57
2021/10/21 01:49:16;;;;;;;3.97;2.72;;;23.30;40.40;;;;;;4770904;29;20089;-57
2021/10/21 01:51:44;;;;;;;3.00;2.63;;;23.30;40.40;;;;;;4764816;30;20058;-57
2021/10/21 01:54:11;;;;;;;2.83;2.60;;;23.30;40.40;;;;;;4765201;30;20138;-57
2021/10/21 01:56:38;;;;;;;3.58;2.63;;;23.30;40.40;;;;;;4764160;30;20085;-57
2021/10/21 01:59:05;;;;;;;3.75;2.67;;;23.40;40.50;;;;;;4770308;30;20138;-57
2021/10/21 02:01:32;;;;;;;3.00;2.70;;;23.30;40.50;;;;;;4780828;29;20142;-57
2021/10/21 02:04:00;;;;;;;5.18;3.10;;;23.30;40.50;;;;;;4781288;30;20056;-57
2021/10/21 02:06:27;;;;;;;3.47;2.95;;;23.30;40.50;;;;;;4782268;29;20073;-58
2021/10/21 02:08:55;;;;;;;3.30;2.63;;;23.30;40.50;;;;;;4774843;29;20094;-57
2021/10/21 02:11:22;;;;;;;3.03;2.75;;;23.30;40.50;;;;;;4781533;29;20051;-57
2021/10/21 02:13:49;;;;;;;3.58;2.70;;;23.30;40.50;;;;;;4782427;29;20483;-57
2021/10/21 02:16:16;;;;;;;3.45;3.15;;;23.30;40.50;;;;;;4781110;29;20142;-55
2021/10/21 02:18:44;;;;;;;4.53;3.00;;;23.40;40.50;;;;;;4775252;29;20108;-57
2021/10/21 02:21:11;;;;;;;3.50;3.20;;;23.30;40.50;;;;;;4781392;29;20146;-56
2021/10/21 02:23:38;;;;;;;3.55;2.42;;;23.30;40.40;;;;;;4781987;29;20556;-57
2021/10/21 02:26:05;;;;;;;2.85;2.40;;;23.40;40.50;;;;;;4781741;29;20112;-57
2021/10/21 02:28:32;;;;;;;3.22;2.55;;;23.30;40.50;;;;;;4776613;29;20059;-57
2021/10/21 02:30:59;;;;;;;3.15;2.85;;;23.40;40.50;;;;;;4779725;29;20492;-57
2021/10/21 02:33:26;;;;;;;3.38;2.60;;;23.40;40.50;;;;;;4780974;29;20391;-57
2021/10/21 02:35:53;;;;;;;2.50;2.30;;;23.30;40.50;;;;;;4782811;29;20479;-58
2021/10/21 02:38:21;;;;;;;2.58;2.38;;;23.30;40.40;;;;;;4780124;29;20062;-57
2021/10/21 02:40:48;;;;;;;2.75;2.42;;;23.30;40.40;;;;;;4783325;29;20094;-57
2021/10/21 02:43:15;;;;;;;2.97;2.30;;;23.40;40.50;;;;;;4785287;29;20480;-57
2021/10/21 02:45:42;;;;;;;3.70;2.65;;;23.30;40.40;;;;;;4785073;29;20131;-57
2021/10/21 02:48:09;;;;;;;3.40;3.10;;;23.30;40.40;;;;;;4779822;29;20097;-58
2021/10/21 02:50:37;;;;;;;2.70;2.45;;;23.30;40.40;;;;;;4782214;29;20082;-57
2021/10/21 02:53:04;;;;;;;2.63;2.42;;;23.30;40.50;;;;;;4785626;29;20142;-57
2021/10/21 02:55:31;;;;;;;2.90;2.60;;;23.30;40.50;;;;;;4784972;29;20055;-57
2021/10/21 02:57:59;;;;;;;3.47;2.60;;;23.30;40.50;;;;;;4782140;29;20151;-58
2021/10/21 03:00:26;;;;;;;2.72;2.17;;;23.30;40.50;;;;;;4779784;30;20458;-56
2021/10/21 03:02:53;;;;;;;2.70;2.50;;;23.30;40.50;;;;;;4783445;29;20148;-57
2021/10/21 03:05:20;;;;;;;3.25;2.65;;;23.30;40.50;;;;;;4785447;29;20124;-57
2021/10/21 03:07:47;;;;;;;2.28;1.92;;;23.30;40.50;;;;;;4781018;29;20063;-57
2021/10/21 03:10:14;;;;;;;4.43;2.50;;;23.30;40.50;;;;;;4780656;29;20146;-57
2021/10/21 03:12:41;;;;;;;2.90;2.63;;;23.30;40.50;;;;;;4784781;29;20052;-56
2021/10/21 03:15:26;;;;;;;2.78;2.38;;;23.30;40.50;;;;;;4784585;29;20055;-57
2021/10/21 03:17:53;;;;;;;2.83;2.20;;;23.30;40.60;;;;;;4781049;29;20134;-57
2021/10/21 03:20:21;;;;;;;3.08;2.42;;;23.30;40.60;;;;;;4780605;29;20126;-58
2021/10/21 03:22:48;;;;;;;2.90;2.30;;;23.30;40.60;;;;;;4784232;29;20059;-56
2021/10/21 03:25:15;;;;;;;2.42;2.22;;;23.30;40.60;;;;;;4784729;29;20520;-58
2021/10/21 03:27:43;;;;;;;2.60;2.40;;;23.30;40.60;;;;;;4781430;29;20561;-56
2021/10/21 03:30:11;;;;;;;2.30;2.10;;;23.30;40.60;;;;;;4781165;29;20066;-57
2021/10/21 03:32:38;;;;;;;2.42;2.20;;;23.20;40.60;;;;;;4783900;29;20134;-57
2021/10/21 03:35:07;;;;;;;2.35;2.13;;;23.30;40.60;;;;;;4784644;29;20414;-57
2021/10/21 03:37:35;;;;;;;2.35;2.15;;;23.30;40.60;;;;;;4779323;29;20062;-58
2021/10/21 03:40:03;;;;;;;2.70;2.35;;;23.30;40.60;;;;;;4778633;30;20142;-57
2021/10/21 03:42:30;;;;;;;3.72;3.03;;;23.30;40.70;;;;;;4783867;29;20171;-57
2021/10/21 03:44:57;;;;;;;2.95;2.65;;;23.30;40.60;;;;;;4798050;29;20400;-57
2021/10/21 03:47:27;;;;;;;2.60;2.40;;;23.30;40.60;;;;;;4780909;29;20454;-57
2021/10/21 03:49:56;;;;;;;2.42;2.22;;;23.30;40.70;;;;;;4775641;30;20104;-57
2021/10/21 03:52:23;;;;;;;2.40;2.28;;;23.30;40.60;;;;;;4776336;29;20138;-57
2021/10/21 03:54:50;;;;;;;2.22;1.92;;;23.30;40.60;;;;;;4773142;30;20074;-57
2021/10/21 03:57:18;;;;;;;1.98;1.85;;;23.30;40.60;;;;;;4778820;29;20055;-57
2021/10/21 03:59:45;;;;;;;2.05;1.90;;;23.30;40.60;;;;;;4768097;29;20052;-56
2021/10/21 04:02:12;;;;;;;2.78;2.13;;;23.30;40.60;;;;;;4776667;29;20079;-57
2021/10/21 04:04:40;;;;;;;2.10;1.90;;;23.30;40.60;;;;;;4774595;30;20134;-57
2021/10/21 04:07:07;;;;;;;2.33;2.15;;;23.30;40.60;;;;;;4773306;29;20139;-57
2021/10/21 04:09:34;;;;;;;2.22;2.03;;;23.30;40.60;;;;;;4774272;29;20146;-57
2021/10/21 04:12:02;;;;;;;2.47;2.28;;;23.30;40.60;;;;;;4783908;29;20146;-57
2021/10/21 04:14:29;;;;;;;2.38;2.17;;;23.30;40.60;;;;;;4782817;30;20142;-57
2021/10/21 04:16:57;;;;;;;2.97;2.10;;;23.30;40.60;;;;;;4783395;29;20047;-57
2021/10/21 04:19:25;;;;;;;2.05;1.95;;;23.30;40.60;;;;;;4776147;29;20536;-57
2021/10/21 04:21:52;;;;;;;2.13;1.92;;;23.30;40.60;;;;;;4782241;29;20146;-57
2021/10/21 04:24:19;;;;;;;2.40;2.20;;;23.30;40.60;;;;;;4783799;29;20081;-57
2021/10/21 04:26:46;;;;;;;2.42;2.22;;;23.30;40.60;;;;;;4783276;29;20055;-57
2021/10/21 04:29:13;;;;;;;2.30;2.10;;;23.30;40.60;;;;;;4775767;29;20473;-57
2021/10/21 04:31:40;;;;;;;4.00;1.98;;;23.30;40.60;;;;;;4783645;29;20083;-57
2021/10/21 04:34:07;;;;;;;2.40;2.17;;;23.30;40.60;;;;;;4781506;29;20142;-57
2021/10/21 04:36:35;;;;;;;2.33;2.13;;;23.30;40.60;;;;;;4784301;29;20055;-56
2021/10/21 04:39:07;;;;;;;2.53;2.33;;;23.30;40.60;;;;;;4774826;29;20486;-57
2021/10/21 04:41:35;;;;;;;2.00;1.90;;;23.30;40.60;;;;;;4783612;29;20540;-57
2021/10/21 04:44:02;;;;;;;2.40;2.17;;;23.20;40.60;;;;;;4782500;29;20112;-57
2021/10/21 04:46:29;;;;;;;1.85;1.75;;;23.30;40.70;;;;;;4783290;29;20086;-57
2021/10/21 04:48:56;;;;;;;2.35;2.15;;;23.20;40.60;;;;;;4771232;29;20078;-57
2021/10/21 04:51:23;;;;;;;2.20;2.00;;;23.20;40.70;;;;;;4778231;29;20138;-57
2021/10/21 04:53:50;;;;;;;2.15;2.00;;;23.20;40.60;;;;;;4778513;30;20075;-57
2021/10/21 04:56:19;;;;;;;2.05;1.88;;;23.20;40.60;;;;;;4781957;29;20518;-57
2021/10/21 04:58:46;;;;;;;2.42;2.22;;;23.20;41.20;;;;;;4775471;29;20090;-58
2021/10/21 05:01:14;;;;;;;2.42;2.22;;;23.20;40.70;;;;;;4783176;29;20134;-57
2021/10/21 05:03:41;;;;;;;2.67;2.00;;;23.20;40.70;;;;;;4786290;29;20055;-55
2021/10/21 05:06:09;;;;;;;2.22;1.88;;;23.20;40.70;;;;;;4780852;30;20135;-56
2021/10/21 05:08:36;;;;;;;2.45;2.08;;;23.20;40.60;;;;;;4775414;29;20063;-56
2021/10/21 05:11:04;;;;;;;2.53;2.03;;;23.20;40.50;;;;;;4779140;30;20054;-56
2021/10/21 05:13:32;;;;;;;2.08;1.95;;;23.30;40.50;;;;;;4782326;30;20254;-56
2021/10/21 05:15:59;;;;;;;2.30;2.00;;;23.30;40.30;;;;;;4778767;29;20401;-56
2021/10/21 05:18:27;;;;;;;2.40;2.20;;;23.30;40.20;;;;;;4769707;29;20143;-56
2021/10/21 05:20:55;;;;;;;1.83;1.70;;;23.30;40.20;;;;;;4775984;30;20100;-56
2021/10/21 05:23:22;;;;;;;2.13;1.92;;;23.30;40.20;;;;;;4774734;29;20056;-57
2021/10/21 05:25:49;;;;;;;2.25;2.05;;;23.30;40.20;;;;;;4792340;29;20056;-57
2021/10/21 05:28:16;;;;;;;1.90;1.80;;;23.30;40.10;;;;;;4774819;29;20454;-57
2021/10/21 05:30:44;;;;;;;2.75;2.20;;;23.30;40.10;;;;;;4768517;29;20506;-57
2021/10/21 05:33:11;;;;;;;2.15;1.90;;;23.30;40.10;;;;;;4771033;29;20136;-58
2021/10/21 05:35:38;;;;;;;2.35;2.13;;;23.30;40.20;;;;;;4769215;29;20128;-58
2021/10/21 05:38:05;;;;;;;2.45;2.25;;;23.30;40.30;;;;;;4763265;29;21897;-57
2021/10/21 05:40:32;;;;;;;2.42;2.22;;;23.30;41.00;;;;;;4740918;30;20082;-57
2021/10/21 05:43:00;;;;;;;2.20;2.10;;;23.30;40.20;;;;;;4765093;30;20120;-56
2021/10/21 05:45:27;;;;;;;5.05;2.35;;;23.30;39.90;;;;;;4768612;30;20140;-54
2021/10/21 05:47:54;;;;;;;3.08;2.75;;;23.30;40.30;;;;;;4761848;29;20061;-57
2021/10/21 05:50:21;;;;;;;5.25;2.47;;;23.30;39.60;;;;;;4750155;30;20134;-58
2021/10/21 05:52:48;;;;;;;3.13;2.17;;;23.30;39.50;;;;;;4767299;30;20146;-57
2021/10/21 05:55:16;;;;;;;2.63;2.42;;;23.30;39.60;;;;;;4767312;29;20159;-56
2021/10/21 05:57:43;;;;;;;2.85;2.55;;;23.30;39.70;;;;;;4767285;29;20067;-56
2021/10/21 06:00:11;;;;;;;3.35;2.72;;;23.30;39.90;;;;;;4760118;29;20071;-54
2021/10/21 06:02:38;;;;;;;2.20;2.10;;;23.40;40.00;;;;;;4772882;29;20051;-54
2021/10/21 06:05:06;;;;;;;2.75;2.58;;;23.40;40.00;;;;;;4767296;29;20081;-55
2021/10/21 06:07:34;;;;;;;5.05;2.22;;;23.50;40.00;;;;;;4768935;29;20089;-55
2021/10/21 06:10:01;;;;;;;2.25;2.08;;;23.50;40.10;;;;;;4764620;29;20486;-55
2021/10/21 06:12:29;;;;;;;5.05;2.42;;;23.60;40.10;;;;;;4775719;29;20105;-57
2021/10/21 06:14:56;;;;;;;4.22;2.30;;;23.60;40.10;;;;;;4777826;29;20091;-57
2021/10/21 06:17:24;;;;;;;1.92;1.80;;;23.70;40.20;;;;;;4771799;29;20131;-57
2021/10/21 06:19:52;;;;;;;3.15;2.40;;;23.70;40.10;;;;;;4761504;29;20505;-57
2021/10/21 06:22:19;;;;;;;2.30;2.10;;;23.70;40.00;;;;;;4770127;29;20484;-57
2021/10/21 06:24:46;;;;;;;2.60;2.40;;;23.80;40.00;;;;;;4772332;29;20142;-57
2021/10/21 06:27:14;;;;;;;2.58;2.38;;;23.80;39.90;;;;;;4772411;29;20466;-58
2021/10/21 06:29:41;;;;;;;2.78;2.58;;;23.80;39.80;;;;;;4767092;29;20051;-58
2021/10/21 06:32:11;;;;;;;3.25;2.20;;;23.90;39.80;;;;;;4777620;29;20126;-58
2021/10/21 06:34:41;;;;;;;3.33;2.27;;;23.90;39.70;;;;;;4773607;29;20051;-59
2021/10/21 06:37:08;;;;;;;;;;;23.90;39.60;;;;;;4776059;30;20062;-59
2021/10/21 06:39:36;;;;;;;3.50;1.67;;;24.00;39.50;;;;;;4766868;29;19933;-59
2021/10/21 06:42:03;;;;;;;6.32;2.20;;;24.10;39.60;;;;;;4777658;30;20578;-59
2021/10/21 06:44:30;;;;;;;2.70;2.10;;;24.10;39.60;;;;;;4773609;29;20108;-57
2021/10/21 06:46:57;;;;;;;2.05;1.88;;;24.10;39.50;;;;;;4771446;30;20450;-59
2021/10/21 06:49:26;;;;;;;3.03;2.42;;;24.20;39.50;;;;;;4763018;29;20626;-58
2021/10/21 06:51:53;;;;;;;3.58;2.40;;;24.20;40.10;;;;;;4774882;29;20146;-58
2021/10/21 06:54:20;;;;;;;4.18;2.30;;;24.30;39.50;;;;;;4776849;29;20146;-59
2021/10/21 06:56:47;;;;;;;2.15;1.95;;;24.30;39.50;;;;;;4780141;29;20463;-57
2021/10/21 06:59:15;;;;;;;8.52;2.60;;;24.30;39.40;;;;;;4765645;29;20079;-59
2021/10/21 07:01:42;;;;;;;3.08;2.38;;;24.40;39.50;;;;;;4772926;30;20139;-59
2021/10/21 07:04:10;;;;;;;4.95;2.00;;;24.40;39.50;;;;;;4776270;29;20063;-59
2021/10/21 07:06:37;;;;;;;4.30;2.05;;;24.40;39.50;;;;;;4775135;29;20128;-60
2021/10/21 07:09:04;;;;;;;2.05;1.95;;;24.50;39.50;;;;;;4763366;29;20720;-59
2021/10/21 07:11:31;;;;;;;2.70;2.42;;;24.50;39.40;;;;;;4772429;30;20082;-58
2021/10/21 07:13:59;;;;;;;2.30;2.05;;;24.60;39.30;;;;;;4776285;29;20520;-58
2021/10/21 07:16:26;;;;;;;1.83;1.70;;;24.70;39.30;;;;;;4776720;29;20063;-59
2021/10/21 07:18:54;;;;;;;3.55;2.13;;;24.70;39.20;;;;;;4766213;29;20094;-58
2021/10/21 07:21:21;;;;;;;6.00;1.80;;;24.70;39.10;;;;;;4770895;30;20142;-58
2021/10/21 07:23:48;;;;;;;2.80;2.08;;;24.70;39.00;;;;;;4775595;29;20079;-58
2021/10/21 07:26:15;;;;;;;3.28;1.95;;;24.80;38.90;;;;;;4771127;29;20154;-60
2021/10/21 07:28:42;;;;;;;1.80;1.70;;;24.80;38.80;;;;;;4767599;29;20082;-60
2021/10/21 07:31:14;;;;;;;2.00;1.90;;;24.90;38.80;;;;;;4770330;29;20426;-59
2021/10/21 07:33:41;;;;;;;1.80;1.70;;;24.90;38.70;;;;;;4773833;30;20082;-59
2021/10/21 07:36:09;;;;;;;2.10;1.90;;;24.90;38.70;;;;;;4771180;29;20051;-58
2021/10/21 07:38:37;;;;;;;3.00;2.10;;;24.90;38.70;;;;;;4767116;29;20083;-58
2021/10/21 07:41:04;;;;;;;3.10;2.35;;;25.00;38.90;;;;;;4770724;29;20051;-58
2021/10/21 07:43:35;;;;;;;3.97;2.10;;;25.00;38.80;;;;;;4772465;29;20507;-59
2021/10/21 07:46:03;;;;;;;2.10;2.00;;;25.00;38.80;;;;;;4772279;30;20121;-57
2021/10/21 07:48:30;;;;;;;2.38;1.98;;;25.00;38.80;;;;;;4761780;29;20055;-57
2021/10/21 07:50:58;;;;;;;4.88;2.28;;;25.00;38.80;;;;;;4766202;29;20062;-57
2021/10/21 07:53:27;;;;;;;3.25;2.05;;;25.10;38.80;;;;;;4773177;29;20137;-57
2021/10/21 07:55:55;;;;;;;2.95;2.60;;;25.10;39.00;;;;;;4778341;29;20067;-58
2021/10/21 07:58:22;;;;;;;2.58;2.38;;;25.10;39.30;;;;;;4766652;29;20493;-58
2021/10/21 08:00:50;;;;;;;2.05;1.95;;;25.10;39.20;;;;;;4765495;30;20063;-56
2021/10/21 08:03:18;;;;;;;2.45;2.03;;;25.10;39.00;;;;;;4774625;29;21254;-59
2021/10/21 08:05:46;;;;;;;2.38;2.17;;;25.20;39.00;;;;;;4776798;30;20502;-57
2021/10/21 08:08:14;;;;;;;2.63;2.10;;;25.20;39.10;;;;;;4772792;29;20108;-58
2021/10/21 08:10:41;;;;;;;5.05;2.33;;;25.20;38.80;;;;;;4766095;29;20055;-57
2021/10/21 08:13:11;;;;;;;1.90;1.80;;;25.30;38.80;;;;;;4777433;29;20055;-58
2021/10/21 08:15:41;;;;;;;3.30;2.47;;;25.30;38.90;;;;;;4776110;29;20186;-59
2021/10/21 08:18:13;;;;;;;2.20;2.00;;;25.30;38.80;;;;;;4770065;29;20527;-57
2021/10/21 08:20:42;;;;;;;2.15;1.95;;;25.30;38.50;;;;;;4765858;29;20138;-58
2021/10/21 08:23:11;;;;;;;3.28;1.98;;;25.30;38.50;;;;;;4777028;29;20055;-58
2021/10/21 08:25:39;;;;;;;2.67;2.40;;;25.40;38.40;;;;;;4778255;29;20128;-57
2021/10/21 08:28:07;;;;;;;2.22;2.03;;;25.40;38.30;;;;;;4772600;29;20043;-58
2021/10/21 08:30:38;;;;;;;2.42;2.22;;;25.40;38.40;;;;;;4770772;29;20491;-56
2021/10/21 08:33:05;;;;;;;2.47;2.20;;;25.40;38.40;;;;;;4776963;29;20138;-57
2021/10/21 08:35:34;;;;;;;2.25;2.00;;;25.40;38.60;;;;;;4773568;30;20047;-57
2021/10/21 08:38:02;;;;;;;3.00;1.95;;;25.50;38.60;;;;;;4770537;29;20063;-57
2021/10/21 08:40:31;;;;;;;2.95;2.60;;;25.50;38.50;;;;;;4765554;29;20079;-56
2021/10/21 08:43:00;;;;;;;2.33;2.22;;;25.50;38.60;;;;;;4775719;29;20093;-58
2021/10/21 08:45:27;;;;;;;4.00;2.40;;;25.60;38.60;;;;;;4773440;30;20147;-58
2021/10/21 08:48:01;;;;;;;2.50;2.30;;;25.60;38.50;;;;;;4767212;29;20906;-59
2021/10/21 08:50:30;;;;;;;5.00;2.45;;;25.60;38.60;;;;;;4765279;29;20906;-58
2021/10/21 08:52:57;;;;;;;2.42;2.10;;;25.60;38.70;;;;;;4775050;29;20146;-56
2021/10/21 08:55:24;;;;;;;5.22;2.67;;;25.60;38.60;;;;;;4776556;29;20090;-57
2021/10/21 08:57:51;;;;;;;3.08;2.00;;;25.60;38.50;;;;;;4763323;29;20146;-57
2021/10/21 09:00:19;;;;;;;4.28;2.20;;;25.60;38.50;;;;;;4766274;30;20055;-56
2021/10/21 09:02:52;;;;;;;3.05;2.20;;;25.60;38.40;;;;;;4784911;29;20391;-57
2021/10/21 09:05:49;;;;;;;3.13;2.33;;;25.70;38.50;;;;;;4773303;29;20146;-58
2021/10/21 09:08:11;;;;;;;;;;;25.70;38.40;;;;;;4769249;29;20553;-57
2021/10/21 09:10:54;;;;;;;4.07;2.08;;;25.70;38.30;;;;;;4766873;30;20281;-58
2021/10/21 09:13:24;;;;;;;4.63;2.20;;;25.70;37.90;;;;;;4772566;29;20044;-58
2021/10/21 09:15:58;;;;;;;2.40;2.17;;;25.70;37.60;;;;;;4771087;29;20095;-57
2021/10/21 09:18:27;;;;;;;2.42;2.00;;;25.70;37.70;;;;;;4767990;29;20055;-57
2021/10/21 09:20:54;;;;;;;3.88;2.50;;;25.70;37.70;;;;;;4763144;29;20063;-57
2021/10/21 09:23:27;;;;;;;5.60;2.58;;;25.70;37.80;;;;;;4771527;30;20121;-58
2021/10/21 09:26:09;;;;;;;3.53;2.10;;;25.80;37.70;;;;;;4773162;29;20125;-58
2021/10/21 09:28:38;;;;;;;2.10;1.90;;;25.80;37.70;;;;;;4762634;29;20047;-58
2021/10/21 09:31:08;;;;;;;4.28;2.20;;;25.80;37.60;;;;;;4766042;30;20055;-59
2021/10/21 09:33:56;;;;;;;3.38;1.90;;;25.90;37.60;;;;;;4772317;29;21931;-58
2021/10/21 09:36:23;;;;;;;4.72;2.25;;;25.90;37.50;;;;;;4771019;29;20061;-57
2021/10/21 09:38:56;;;;;;;1.90;1.75;;;25.90;37.50;;;;;;4764623;29;20134;-58
2021/10/21 09:41:30;;;;;;;3.35;1.63;;;25.90;37.40;;;;;;4767431;30;20051;-57
2021/10/21 09:43:57;;;;;;;4.97;2.20;;;26.00;37.40;;;;;;4771939;30;20149;-57
2021/10/21 09:46:42;;;;;;;4.50;2.13;;;25.90;37.80;;;;;;4780370;29;20494;-58
2021/10/21 09:49:33;;;;;;;7.25;1.95;;;26.00;37.50;;;;;;4760374;29;20503;-58
2021/10/21 09:52:01;;;;;;;2.88;2.35;;;26.00;37.60;;;;;;4774556;29;20138;-59
2021/10/21 09:54:29;;;;;;;3.05;1.98;;;26.00;37.70;;;;;;4771988;30;20090;-58
2021/10/21 09:57:13;;;;;;;3.83;2.33;;;26.00;37.70;;;;;;4773565;29;20058;-58
2021/10/21 09:59:40;;;;;;;2.47;2.28;;;26.10;37.60;;;;;;4758077;29;20055;-58
2021/10/21 10:02:11;;;;;;;7.57;2.05;;;26.10;37.70;;;;;;4771690;29;20117;-58
2021/10/21 10:04:39;;;;;;;4.45;1.70;;;26.20;37.70;;;;;;4756411;30;20063;-59
2021/10/21 10:07:09;;;;;;;2.45;1.92;;;26.10;37.50;;;;;;4769333;30;20570;-59
2021/10/21 10:09:36;;;;;;;2.38;1.85;;;26.20;37.50;;;;;;4757195;29;20407;-59
2021/10/21 10:12:05;;;;;;;7.03;2.30;;;26.20;37.20;;;;;;4770911;29;20094;-58
2021/10/21 10:14:39;;;;;;;2.22;2.03;;;26.20;37.20;;;;;;4775589;30;20608;-58
2021/10/21 10:17:06;;;;;;;2.13;1.63;;;26.20;37.10;;;;;;4772718;29;20105;-58
2021/10/21 10:19:34;;;;;;;3.78;1.80;;;26.20;37.30;;;;;;4761158;29;20146;-59
2021/10/21 10:22:06;;;;;;;2.22;1.45;;;26.20;37.30;;;;;;4768109;29;20116;-58
2021/10/21 10:24:35;;;;;;;2.20;1.58;;;26.20;37.10;;;;;;4772270;29;20055;-57
2021/10/21 10:27:27;;;;;;;5.63;1.77;;;26.20;37.00;;;;;;4772655;30;20127;-56
2021/10/21 10:29:56;;;;;;;4.85;1.95;;;26.20;37.10;;;;;;4754501;29;20124;-55
2021/10/21 10:32:41;;;;;;;6.38;1.90;;;26.30;37.90;;;;;;4766568;29;20059;-56
2021/10/21 10:35:10;;;;;;;3.75;1.58;;;26.30;37.30;;;;;;4770343;29;20055;-57
2021/10/21 10:38:03;;;;;;;1.53;1.37;;;26.30;37.30;;;;;;4763405;29;20067;-57
2021/10/21 10:40:40;;;;;;;1.75;1.65;;;26.30;37.30;;;;;;4759358;29;20642;-57
2021/10/21 10:43:08;;;;;;;2.25;1.65;;;26.30;37.20;;;;;;4770472;29;20868;-56
2021/10/21 10:45:55;;;;;;;4.45;1.40;;;26.30;37.20;;;;;;4772348;30;20418;-56
2021/10/21 10:48:51;;;;;;;2.05;1.73;;;26.30;37.20;;;;;;4763282;29;20058;-60
2021/10/21 10:51:19;;;;;;;1.60;1.50;;;26.40;37.10;;;;;;4764018;29;20055;-59
2021/10/21 10:54:06;;;;;;;1.58;1.48;;;26.40;37.10;;;;;;4767101;30;20052;-57
2021/10/21 10:56:41;;;;;;;1.48;1.38;;;26.40;37.10;;;;;;4767884;29;20139;-56
2021/10/21 10:59:17;;;;;;;2.85;1.58;;;26.40;37.00;;;;;;4763292;29;20116;-57
2021/10/21 11:01:45;;;;;;;2.28;2.08;;;26.40;37.60;;;;;;4785389;29;20059;-56
2021/10/21 11:04:32;;;;;;;2.33;1.85;;;26.40;36.90;;;;;;4780733;29;20055;-58
2021/10/21 11:07:07;;;;;;;1.40;1.30;;;26.50;36.80;;;;;;4779329;30;20055;-57
2021/10/21 11:09:34;;;;;;;1.60;1.50;;;26.50;36.90;;;;;;4761482;29;20138;-58
2021/10/21 11:12:04;;;;;;;1.92;1.77;;;26.50;36.90;;;;;;4772500;29;20138;-57
2021/10/21 11:14:39;;;;;;;1.95;1.85;;;26.50;36.80;;;;;;4775895;29;20080;-58
2021/10/21 11:17:09;;;;;;;3.38;1.60;;;26.50;36.80;;;;;;4775534;30;20135;-56
2021/10/21 11:19:49;;;;;;;2.38;2.03;;;26.50;36.70;;;;;;4762937;29;20105;-55
2021/10/21 11:22:38;;;;;;;4.35;1.83;;;26.50;36.70;;;;;;4772636;30;20047;-56
2021/10/21 11:25:08;;;;;;;1.63;1.52;;;26.50;36.70;;;;;;4777137;29;20161;-58
2021/10/21 11:27:41;;;;;;;1.48;1.38;;;26.50;36.70;;;;;;4772604;29;20134;-60
2021/10/21 11:30:23;;;;;;;1.98;1.77;;;26.50;36.70;;;;;;4762768;29;20565;-58
2021/10/21 11:33:08;;;;;;;1.58;1.48;;;26.50;36.60;;;;;;4777215;30;20573;-59
2021/10/21 11:35:39;;;;;;;2.03;1.77;;;26.50;36.50;;;;;;4775494;30;20070;-59
2021/10/21 11:38:12;;;;;;;6.18;1.85;;;26.50;36.40;;;;;;4771510;29;20104;-59
2021/10/21 11:40:42;;;;;;;1.98;1.77;;;26.60;36.40;;;;;;4767804;29;20055;-57
2021/10/21 11:43:22;;;;;;;2.65;1.98;;;26.60;36.40;;;;;;4777797;29;20677;-58
2021/10/21 11:46:05;;;;;;;2.00;1.75;;;26.50;36.30;;;;;;4775942;29;20094;-59
2021/10/21 11:48:39;;;;;;;1.58;1.48;;;26.60;36.50;;;;;;4773849;29;20055;-59
2021/10/21 11:51:09;;;;;;;2.75;1.63;;;26.60;36.50;;;;;;4764065;29;20171;-59
2021/10/21 11:53:37;;;;;;;;;;;26.60;36.60;;;;;;4774991;29;20055;-60
2021/10/21 11:56:04;;;;;;;1.42;1.30;;;26.70;36.80;;;;;;4775231;30;19955;-60
2021/10/21 11:58:36;;;;;;;1.17;1.17;;;26.60;36.80;;;;;;4767842;29;20051;-61
2021/10/21 12:01:08;;;;;;;1.40;1.30;;;26.70;37.00;;;;;;4766059;29;20421;-60
2021/10/21 12:03:43;;;;;;;1.60;1.50;;;26.70;37.10;;;;;;4773173;30;20063;-58
2021/10/21 12:06:16;;;;;;;1.92;1.83;;;26.70;37.00;;;;;;4770359;29;20470;-58
2021/10/21 12:08:58;;;;;;;2.63;1.98;;;26.70;36.90;;;;;;4767397;29;20498;-60
2021/10/21 12:11:25;;;;;;;1.50;1.40;;;26.70;36.80;;;;;;4773485;29;20063;-60
2021/10/21 12:14:01;;;;;;;2.95;1.33;;;26.60;36.70;;;;;;4776318;30;20052;-60
2021/10/21 12:16:29;;;;;;;1.33;1.23;;;26.60;36.80;;;;;;4774683;29;20051;-60
2021/10/21 12:19:09;;;;;;;1.63;1.52;;;26.60;36.80;;;;;;4763329;29;20429;-60
2021/10/21 12:21:39;;;;;;;1.58;1.48;;;26.60;37.10;;;;;;4769607;30;20488;-58
2021/10/21 12:24:21;;;;;;;3.33;1.38;;;26.60;37.40;;;;;;4771752;29;20063;-58
2021/10/21 12:27:03;;;;;;;1.95;1.58;;;26.60;37.60;;;;;;4775191;30;20454;-60
2021/10/21 12:29:42;;;;;;;1.73;1.60;;;26.60;37.60;;;;;;4757883;29;20059;-59
2021/10/21 12:32:13;;;;;;;1.50;1.40;;;26.50;37.60;;;;;;4773847;29;20059;-53
2021/10/21 12:34:41;;;;;;;2.25;1.48;;;26.50;37.40;;;;;;4774232;29;20082;-58
2021/10/21 12:37:17;;;;;;;1.65;1.55;;;26.50;37.30;;;;;;4772202;29;20055;-57
2021/10/21 12:39:44;;;;;;;1.98;1.70;;;26.50;37.30;;;;;;4762346;29;20582;-57
2021/10/21 12:42:23;;;;;;;1.42;1.23;;;26.50;37.30;;;;;;4772529;29;20089;-58
2021/10/21 12:45:00;;;;;;;3.95;1.45;;;26.50;37.20;;;;;;4777046;29;20492;-58
2021/10/21 12:47:37;;;;;;;1.48;1.38;;;26.60;37.20;;;;;;4775587;29;20083;-58
2021/10/21 12:50:10;;;;;;;1.75;1.65;;;26.60;37.70;;;;;;4764122;29;20142;-57
2021/10/21 12:52:40;;;;;;;1.42;1.20;;;26.60;37.10;;;;;;4775267;29;20154;-57
2021/10/21 12:55:16;;;;;;;2.75;1.38;;;26.70;37.20;;;;;;4775568;29;20128;-58
2021/10/21 12:57:51;;;;;;;1.67;1.58;;;26.70;37.10;;;;;;4769097;29;20138;-58
2021/10/21 13:00:30;;;;;;;1.77;1.20;;;26.70;37.30;;;;;;4768488;30;20117;-58